createdAt,value
2018-04-23T00:01:19.446Z,4.18
2018-04-23T00:03:46.913Z,4.10
2018-04-23T00:06:14.327Z,3.60
2018-04-23T00:08:41.764Z,4.50
2018-04-23T00:11:09.193Z,3.92
2018-04-23T00:13:36.685Z,5.15
2018-04-23T00:16:04.071Z,4.32
2018-04-23T00:18:32.205Z,3.75
2018-04-23T00:20:59.674Z,3.78
2018-04-23T00:23:27.126Z,3.95
2018-04-23T00:25:54.530Z,3.30
2018-04-23T00:28:22.180Z,3.78
2018-04-23T00:30:49.773Z,3.30
2018-04-23T00:33:17.209Z,4.78
2018-04-23T00:35:44.651Z,3.70
2018-04-23T00:38:12.083Z,3.97
2018-04-23T00:40:39.511Z,3.62
2018-04-23T00:43:06.978Z,3.70
2018-04-23T00:45:34.443Z,6.12
2018-04-23T00:48:01.948Z,4.07
2018-04-23T00:50:29.414Z,3.53
2018-04-23T00:53:08.800Z,4.72
2018-04-23T00:55:36.274Z,4.47
2018-04-23T00:58:03.674Z,3.00
2018-04-23T01:00:31.093Z,3.87
2018-04-23T01:02:58.491Z,5.22
2018-04-23T01:05:25.887Z,3.25
2018-04-23T01:07:53.311Z,3.22
2018-04-23T01:10:20.713Z,3.37
2018-04-23T01:12:49.021Z,4.85
2018-04-23T01:15:16.494Z,4.30
2018-04-23T01:17:43.889Z,4.30
2018-04-23T01:20:11.412Z,4.57
2018-04-23T01:22:39.784Z,4.15
2018-04-23T01:25:07.217Z,3.70
2018-04-23T01:27:34.637Z,3.42
2018-04-23T01:30:02.031Z,5.28
2018-04-23T01:32:29.500Z,4.00
2018-04-23T01:34:56.932Z,3.15
2018-04-23T01:37:24.343Z,3.50
2018-04-23T01:39:52.011Z,3.05
2018-04-23T01:42:19.479Z,4.50
2018-04-23T01:44:46.941Z,4.40
2018-04-23T01:47:14.398Z,3.40
2018-04-23T01:49:41.844Z,3.72
2018-04-23T01:52:09.289Z,4.22
2018-04-23T01:54:37.497Z,2.30
2018-04-23T01:57:04.953Z,4.10
2018-04-23T01:59:33.046Z,3.80
2018-04-23T02:02:00.508Z,3.67
2018-04-23T02:04:27.937Z,4.68
2018-04-23T02:06:55.371Z,3.47
2018-04-23T02:09:22.838Z,3.80
2018-04-23T02:11:50.239Z,4.90
2018-04-23T02:14:17.657Z,4.70
2018-04-23T02:16:45.103Z,3.35
2018-04-23T02:19:12.549Z,3.80
2018-04-23T02:21:39.939Z,3.80
2018-04-23T02:24:07.424Z,3.72
2018-04-23T02:26:35.286Z,3.37
2018-04-23T02:29:02.770Z,4.00
2018-04-23T02:31:30.227Z,4.10
2018-04-23T02:33:57.679Z,2.80
2018-04-23T02:36:25.098Z,6.50
2018-04-23T02:38:52.907Z,5.12
2018-04-23T02:41:20.375Z,3.80
2018-04-23T02:43:47.834Z,4.55
2018-04-23T02:46:15.267Z,3.70
2018-04-23T02:48:43.309Z,3.25
2018-04-23T02:51:11.131Z,5.00
2018-04-23T02:53:38.533Z,5.80
2018-04-23T02:56:06.009Z,3.90
2018-04-23T02:58:33.510Z,7.57
2018-04-23T03:01:00.985Z,4.07
2018-04-23T03:03:28.416Z,5.03
2018-04-23T03:05:55.887Z,3.72
2018-04-23T03:08:23.468Z,4.22
2018-04-23T03:10:50.932Z,4.78
2018-04-23T03:13:18.339Z,3.53
2018-04-23T03:15:45.779Z,4.50
2018-04-23T03:18:13.211Z,3.35
2018-04-23T03:20:40.681Z,4.07
2018-04-23T03:23:08.111Z,4.12
2018-04-23T03:25:35.565Z,3.78
2018-04-23T03:28:03.036Z,4.28
2018-04-23T03:30:30.471Z,4.00
2018-04-23T03:32:57.925Z,4.85
2018-04-23T03:35:25.325Z,3.28
2018-04-23T03:37:52.810Z,4.40
2018-04-23T03:40:20.179Z,3.45
2018-04-23T03:42:47.613Z,4.85
2018-04-23T03:45:15.091Z,3.33
2018-04-23T03:47:42.563Z,4.93
2018-04-23T03:50:09.978Z,3.72
2018-04-23T03:52:37.405Z,3.53
2018-04-23T03:55:04.833Z,3.90
2018-04-23T03:57:32.385Z,3.65
2018-04-23T03:59:59.977Z,3.60
2018-04-23T04:02:27.383Z,4.47
2018-04-23T04:04:54.808Z,5.65
2018-04-23T04:07:22.276Z,3.08
2018-04-23T04:09:49.737Z,4.85
2018-04-23T04:12:29.020Z,5.82
2018-04-23T04:15:08.186Z,4.82
2018-04-23T04:17:36.280Z,3.87
2018-04-23T04:20:03.685Z,3.60
2018-04-23T04:22:31.128Z,4.70
2018-04-23T04:24:58.511Z,5.40
2018-04-23T04:27:25.947Z,6.05
2018-04-23T04:29:53.363Z,3.92
2018-04-23T04:32:20.787Z,4.53
2018-04-23T04:34:48.241Z,4.55
2018-04-23T04:37:15.700Z,4.35
2018-04-23T04:39:43.132Z,4.03
2018-04-23T04:42:10.588Z,5.10
2018-04-23T04:44:38.150Z,5.30
2018-04-23T04:47:05.621Z,5.20
2018-04-23T04:49:33.079Z,6.25
2018-04-23T04:52:00.564Z,6.12
2018-04-23T04:54:28.020Z,3.92
2018-04-23T04:56:55.449Z,4.82
2018-04-23T04:59:22.987Z,4.15
2018-04-23T05:01:50.459Z,4.62
2018-04-23T05:04:18.002Z,3.42
2018-04-23T05:06:45.479Z,3.60
2018-04-23T05:09:12.900Z,4.50
2018-04-23T05:11:40.290Z,3.50
2018-04-23T05:14:07.740Z,4.05
2018-04-23T05:16:35.290Z,6.90
2018-04-23T05:19:02.717Z,5.53
2018-04-23T05:21:30.155Z,4.70
2018-04-23T05:23:57.582Z,3.58
2018-04-23T05:26:25.019Z,4.65
2018-04-23T05:28:52.476Z,7.40
2018-04-23T05:31:19.903Z,5.25
2018-04-23T05:33:47.340Z,5.62
2018-04-23T05:36:14.738Z,5.25
2018-04-23T05:38:42.170Z,4.40
2018-04-23T05:41:09.600Z,5.47
2018-04-23T05:43:37.200Z,4.97
2018-04-23T05:46:04.665Z,5.87
2018-04-23T05:48:32.447Z,6.93
2018-04-23T05:50:59.874Z,6.30
2018-04-23T05:53:27.326Z,6.60
2018-04-23T05:55:54.813Z,5.32
2018-04-23T05:58:22.267Z,5.45
2018-04-23T06:00:49.670Z,6.18
2018-04-23T06:03:17.079Z,9.50
2018-04-23T06:05:44.524Z,7.18
2018-04-23T06:08:12.138Z,4.43
2018-04-23T06:10:39.967Z,5.93
2018-04-23T06:13:07.455Z,4.85
2018-04-23T06:15:34.883Z,5.97
2018-04-23T06:18:02.296Z,7.00
2018-04-23T06:20:29.859Z,7.53
2018-04-23T06:22:57.324Z,7.32
2018-04-23T06:25:24.751Z,5.93
2018-04-23T06:27:52.307Z,7.10
2018-04-23T06:30:19.739Z,6.00
2018-04-23T06:32:47.239Z,6.53
2018-04-23T06:35:14.697Z,7.30
2018-04-23T06:37:42.195Z,6.72
2018-04-23T06:40:09.642Z,6.30
2018-04-23T06:42:37.111Z,7.12
2018-04-23T06:45:04.590Z,6.78
2018-04-23T06:47:33.235Z,7.43
2018-04-23T06:50:00.691Z,5.80
2018-04-23T06:52:28.124Z,7.57
2018-04-23T06:54:56.348Z,5.80
2018-04-23T06:57:23.815Z,5.65
2018-04-23T06:59:51.276Z,6.22
2018-04-23T07:02:18.823Z,5.87
2018-04-23T07:04:46.241Z,5.62
2018-04-23T07:07:13.628Z,5.90
2018-04-23T07:09:41.099Z,4.70
2018-04-23T07:12:08.636Z,6.45
2018-04-23T07:14:36.099Z,5.45
2018-04-23T07:17:03.537Z,5.10
2018-04-23T07:19:31.148Z,5.93
2018-04-23T07:21:58.568Z,4.15
2018-04-23T07:24:26.141Z,4.90
2018-04-23T07:26:53.671Z,5.35
2018-04-23T07:29:21.185Z,5.90
2018-04-23T07:31:48.603Z,4.82
2018-04-23T07:34:16.071Z,5.43
2018-04-23T07:36:43.475Z,5.40
2018-04-23T07:39:11.240Z,6.10
2018-04-23T07:41:38.659Z,4.78
2018-04-23T07:44:06.237Z,4.90
2018-04-23T07:46:33.673Z,7.47
2018-04-23T07:49:01.109Z,7.47
2018-04-23T07:51:28.590Z,9.07
2018-04-23T07:53:56.249Z,8.75
2018-04-23T07:56:23.718Z,7.70
2018-04-23T07:58:51.187Z,6.57
2018-04-23T08:01:18.670Z,8.52
2018-04-23T08:03:46.095Z,5.47
2018-04-23T08:06:13.531Z,11.50
2018-04-23T08:08:40.986Z,6.30
2018-04-23T08:11:08.467Z,6.93
2018-04-23T08:13:35.895Z,7.65
2018-04-23T08:16:03.316Z,7.12
2018-04-23T08:18:30.832Z,7.57
2018-04-23T08:20:58.280Z,5.87
2018-04-23T08:23:25.750Z,6.45
2018-04-23T08:25:53.195Z,7.20
2018-04-23T08:28:20.644Z,6.93
2018-04-23T08:30:48.070Z,6.10
2018-04-23T08:33:15.541Z,6.60
2018-04-23T08:35:42.998Z,9.20
2018-04-23T08:38:10.507Z,6.80
2018-04-23T08:40:37.933Z,6.07
2018-04-23T08:43:05.356Z,6.22
2018-04-23T08:45:32.839Z,7.85
2018-04-23T08:48:00.305Z,4.85
2018-04-23T08:50:28.758Z,5.70
2018-04-23T08:52:56.884Z,4.50
2018-04-23T08:55:24.337Z,4.62
2018-04-23T08:57:51.830Z,7.75
2018-04-23T09:00:19.972Z,5.37
2018-04-23T09:02:47.370Z,5.93
2018-04-23T09:05:14.809Z,5.35
2018-04-23T09:07:42.232Z,5.57
2018-04-23T09:10:09.637Z,4.55
2018-04-23T09:12:37.077Z,5.20
2018-04-23T09:15:04.595Z,6.43
2018-04-23T09:17:32.673Z,5.90
2018-04-23T09:20:00.110Z,5.22
2018-04-23T09:22:27.585Z,4.30
2018-04-23T09:24:55.089Z,4.90
2018-04-23T09:27:22.495Z,7.65
2018-04-23T09:29:49.922Z,6.00
2018-04-23T09:32:17.355Z,6.50
2018-04-23T09:34:44.813Z,5.75
2018-04-23T09:37:12.253Z,6.82
2018-04-23T09:39:39.705Z,5.93
2018-04-23T09:42:07.223Z,6.57
2018-04-23T09:44:34.732Z,6.65
2018-04-23T09:47:02.092Z,4.72
2018-04-23T09:49:29.527Z,4.78
2018-04-23T09:51:56.964Z,5.80
2018-04-23T09:54:24.414Z,7.30
2018-04-23T09:56:51.886Z,5.35
2018-04-23T09:59:19.314Z,5.65
2018-04-23T10:01:50.600Z,5.25
2018-04-23T10:04:20.940Z,5.03
2018-04-23T10:06:48.372Z,5.28
2018-04-23T10:09:15.839Z,5.65
2018-04-23T10:11:44.008Z,4.80
2018-04-23T10:14:11.426Z,4.62
2018-04-23T10:16:39.015Z,5.47
2018-04-23T10:19:06.414Z,5.10
2018-04-23T10:21:33.910Z,6.32
2018-04-23T10:24:02.324Z,6.47
2018-04-23T10:26:29.833Z,5.35
2018-04-23T10:28:57.374Z,4.03
2018-04-23T10:31:24.900Z,4.97
2018-04-23T10:33:52.455Z,4.93
2018-04-23T10:36:19.966Z,4.40
2018-04-23T10:38:47.366Z,5.40
2018-04-23T10:41:14.805Z,4.80
2018-04-23T10:43:42.323Z,5.82
2018-04-23T10:46:09.797Z,6.35
2018-04-23T10:48:37.297Z,5.75
2018-04-23T10:51:04.772Z,6.00
2018-04-23T10:53:32.257Z,5.68
2018-04-23T10:55:59.732Z,6.82
2018-04-23T10:58:28.167Z,4.68
2018-04-23T11:00:55.614Z,6.03
2018-04-23T11:03:23.030Z,6.30
2018-04-23T11:05:50.456Z,4.57
2018-04-23T11:08:17.916Z,4.93
2018-04-23T11:10:45.352Z,4.55
2018-04-23T11:13:12.800Z,4.68
2018-04-23T11:15:40.258Z,4.60
2018-04-23T11:18:07.789Z,5.12
2018-04-23T11:20:35.307Z,4.85
2018-04-23T11:23:02.904Z,6.15
2018-04-23T11:25:30.500Z,4.50
2018-04-23T11:27:57.970Z,5.10
2018-04-23T11:30:25.458Z,5.03
2018-04-23T11:32:52.905Z,6.05
2018-04-23T11:35:20.346Z,4.75
2018-04-23T11:37:47.809Z,6.40
2018-04-23T11:40:15.355Z,4.60
2018-04-23T11:42:43.067Z,4.65
2018-04-23T11:45:10.584Z,4.12
2018-04-23T11:47:38.088Z,5.90
2018-04-23T11:50:05.595Z,6.00
2018-04-23T11:52:33.080Z,6.15
2018-04-23T11:55:00.618Z,3.97
2018-04-23T11:57:28.150Z,4.57
2018-04-23T11:59:55.601Z,4.93
2018-04-23T12:02:23.101Z,4.85
2018-04-23T12:04:50.471Z,3.95
2018-04-23T12:07:17.991Z,5.70
2018-04-23T12:09:45.435Z,6.05
2018-04-23T12:12:13.020Z,5.95
2018-04-23T12:14:40.478Z,4.50
2018-04-23T12:17:08.002Z,6.55
2018-04-23T12:19:35.424Z,6.78
2018-04-23T12:22:02.960Z,4.95
2018-04-23T12:24:30.430Z,6.10
2018-04-23T12:26:58.050Z,5.22
2018-04-23T12:29:25.543Z,3.80
2018-04-23T12:31:53.015Z,6.37
2018-04-23T12:34:20.446Z,4.97
2018-04-23T12:36:47.926Z,5.20
2018-04-23T12:39:15.438Z,5.50
2018-04-23T12:41:42.876Z,8.13
2018-04-23T12:44:10.371Z,6.60
2018-04-23T12:46:37.854Z,8.57
2018-04-23T12:49:05.355Z,6.30
2018-04-23T12:51:32.872Z,6.22
2018-04-23T12:54:00.328Z,5.47
2018-04-23T12:56:27.909Z,4.15
2018-04-23T12:58:55.346Z,7.03
2018-04-23T13:01:22.821Z,5.93
2018-04-23T13:03:50.251Z,5.57
2018-04-23T13:06:17.746Z,6.68
2018-04-23T13:08:45.700Z,5.25
2018-04-23T13:11:13.149Z,6.65
2018-04-23T13:13:40.579Z,8.27
2018-04-23T13:16:07.975Z,7.57
2018-04-23T13:18:35.396Z,7.35
2018-04-23T13:21:02.839Z,6.10
2018-04-23T13:23:30.327Z,7.03
2018-04-23T13:25:57.763Z,7.93
2018-04-23T13:28:25.389Z,9.35
2018-04-23T13:30:52.832Z,8.70
2018-04-23T13:33:20.327Z,8.05
2018-04-23T13:35:47.830Z,7.28
2018-04-23T13:38:15.279Z,7.60
2018-04-23T13:40:42.780Z,7.90
2018-04-23T13:43:10.302Z,9.98
2018-04-23T13:45:38.505Z,7.37
2018-04-23T13:48:05.939Z,6.93
2018-04-23T13:50:33.383Z,7.78
2018-04-23T13:53:00.884Z,8.57
2018-04-23T13:55:28.585Z,6.30
2018-04-23T13:57:56.082Z,8.10
2018-04-23T14:00:23.609Z,6.90
2018-04-23T14:02:51.118Z,6.97
2018-04-23T14:05:18.593Z,5.47
2018-04-23T14:07:46.143Z,7.03
2018-04-23T14:10:13.625Z,6.68
2018-04-23T14:12:41.162Z,5.90
2018-04-23T14:15:08.645Z,5.25
2018-04-23T14:17:36.170Z,7.03
2018-04-23T14:20:03.610Z,8.15
2018-04-23T14:22:31.043Z,5.80
2018-04-23T14:29:09.273Z,6.03
2018-04-23T14:31:36.804Z,5.22
2018-04-23T14:34:04.268Z,5.50
2018-04-23T14:36:31.725Z,4.30
2018-04-23T14:38:59.192Z,4.97
2018-04-23T14:41:26.616Z,5.30
2018-04-23T14:43:54.118Z,5.05
2018-04-23T14:46:21.566Z,5.05
2018-04-23T14:48:49.014Z,4.78
2018-04-23T14:51:16.574Z,4.35
2018-04-23T14:53:44.039Z,3.25
2018-04-23T14:56:11.757Z,3.80
2018-04-23T14:58:39.241Z,4.20
2018-04-23T15:01:06.714Z,5.43
2018-04-23T15:03:34.220Z,4.07
2018-04-23T15:06:01.617Z,3.28
2018-04-23T15:08:29.044Z,4.90
2018-04-23T15:10:56.528Z,4.95
2018-04-23T15:13:23.983Z,4.37
2018-04-23T15:15:51.439Z,3.35
2018-04-23T15:18:18.885Z,3.92
2018-04-23T15:20:46.380Z,3.08
2018-04-23T15:23:13.927Z,4.20
2018-04-23T15:25:41.570Z,3.45
2018-04-23T15:28:09.063Z,3.83
2018-04-23T15:30:36.557Z,2.65
2018-04-23T15:33:04.051Z,3.30
2018-04-23T15:35:31.524Z,3.33
2018-04-23T15:37:58.939Z,4.07
2018-04-23T15:40:26.471Z,2.67
2018-04-23T15:42:53.978Z,2.08
2018-04-23T15:45:21.437Z,2.83
2018-04-23T15:47:49.135Z,2.78
2018-04-23T15:50:16.599Z,3.22
2018-04-23T15:52:44.169Z,3.60
2018-04-23T15:55:11.695Z,3.30
2018-04-23T15:57:39.203Z,2.87
2018-04-23T16:00:06.636Z,2.30
2018-04-23T16:02:34.139Z,2.37
2018-04-23T16:05:01.647Z,2.10
2018-04-23T16:07:29.143Z,2.80
2018-04-23T16:09:56.685Z,2.90
2018-04-23T16:12:24.121Z,2.42
2018-04-23T16:14:51.555Z,1.90
2018-04-23T16:17:19.004Z,2.50
2018-04-23T16:19:46.473Z,2.17
2018-04-23T16:22:14.083Z,2.50
2018-04-23T16:24:41.525Z,2.35
2018-04-23T16:27:08.965Z,2.33
2018-04-23T16:29:36.491Z,2.78
2018-04-23T16:32:04.122Z,2.60
2018-04-23T16:34:31.548Z,3.60
2018-04-23T16:36:58.979Z,3.40
2018-04-23T16:39:26.543Z,2.05
2018-04-23T16:41:53.959Z,2.17
2018-04-23T16:44:27.165Z,1.27
2018-04-23T16:46:49.072Z,1.45
2018-04-23T16:49:16.561Z,1.73
2018-04-23T16:51:44.033Z,2.30
2018-04-23T16:54:11.446Z,1.30
2018-04-23T16:56:39.073Z,1.90
2018-04-23T16:59:06.563Z,1.33
2018-04-23T17:01:34.054Z,1.65
2018-04-23T17:04:01.479Z,2.72
2018-04-23T17:06:28.944Z,1.10
2018-04-23T17:08:56.376Z,1.95
2018-04-23T17:11:24.294Z,1.33
2018-04-23T17:13:52.042Z,2.55
2018-04-23T17:16:19.471Z,1.40
2018-04-23T17:18:46.890Z,1.50
2018-04-23T17:21:14.475Z,1.40
2018-04-23T17:23:41.959Z,1.37
2018-04-23T17:26:09.569Z,1.12
2018-04-23T17:28:37.071Z,1.40
2018-04-23T17:31:04.522Z,1.70
2018-04-23T17:33:31.989Z,3.03
2018-04-23T17:35:59.460Z,2.00
2018-04-23T17:38:26.884Z,1.52
2018-04-23T17:40:55.229Z,1.60
2018-04-23T17:43:22.675Z,2.22
2018-04-23T17:45:50.146Z,1.25
2018-04-23T17:48:17.552Z,1.50
2018-04-23T17:50:45.030Z,1.40
2018-04-23T17:53:12.590Z,1.58
2018-04-23T17:55:40.198Z,1.55
2018-04-23T17:58:07.993Z,1.60
2018-04-23T18:00:35.390Z,1.80
2018-04-23T18:03:02.881Z,2.30
2018-04-23T18:05:30.334Z,1.42
2018-04-23T18:07:58.354Z,1.60
2018-04-23T18:10:25.805Z,1.67
2018-04-23T18:12:53.313Z,1.75
2018-04-23T18:15:20.744Z,1.17
2018-04-23T18:17:48.268Z,1.50
2018-04-23T18:20:15.775Z,2.35
2018-04-23T18:22:43.217Z,2.20
2018-04-23T18:25:10.692Z,2.03
2018-04-23T18:27:38.375Z,1.70
2018-04-23T18:30:05.766Z,1.67
2018-04-23T18:32:33.231Z,1.75
2018-04-23T18:35:00.630Z,1.83
2018-04-23T18:37:28.126Z,1.23
2018-04-23T18:39:56.312Z,2.62
2018-04-23T18:42:23.761Z,3.25
2018-04-23T18:44:51.187Z,2.58
2018-04-23T18:47:18.829Z,1.70
2018-04-23T18:49:46.274Z,1.65
2018-04-23T18:52:13.957Z,2.20
2018-04-23T18:54:41.519Z,3.05
2018-04-23T18:57:09.668Z,2.05
2018-04-23T18:59:37.149Z,2.55
2018-04-23T19:02:04.881Z,2.10
2018-04-23T19:04:32.445Z,2.08
2018-04-23T19:06:59.992Z,1.83
2018-04-23T19:09:27.347Z,1.52
2018-04-23T19:11:54.749Z,2.03
2018-04-23T19:14:22.279Z,1.98
2018-04-23T19:16:49.731Z,2.55
2018-04-23T19:19:17.136Z,1.77
2018-04-23T19:21:44.612Z,2.67
2018-04-23T19:24:12.044Z,2.55
2018-04-23T19:26:39.483Z,1.70
2018-04-23T19:29:06.966Z,1.98
2018-04-23T19:31:34.615Z,1.35
2018-04-23T19:34:02.021Z,2.08
2018-04-23T19:36:29.481Z,2.35
2018-04-23T19:38:56.985Z,1.70
2018-04-23T19:41:24.384Z,2.10
2018-04-23T19:43:51.915Z,1.37
2018-04-23T19:46:19.482Z,1.52
2018-04-23T19:48:46.847Z,2.42
2018-04-23T19:51:14.367Z,1.73
2018-04-23T19:53:41.850Z,1.95
2018-04-23T19:56:09.276Z,1.77
2018-04-23T19:58:37.405Z,2.28
2018-04-23T20:01:04.854Z,2.05
2018-04-23T20:03:32.336Z,2.60
2018-04-23T20:05:59.776Z,1.40
2018-04-23T20:08:27.217Z,2.37
2018-04-23T20:10:54.755Z,3.28
2018-04-23T20:13:22.184Z,3.58
2018-04-23T20:15:49.635Z,2.10
2018-04-23T20:18:17.112Z,1.77
2018-04-23T20:20:45.103Z,2.75
2018-04-23T20:23:12.858Z,2.08
2018-04-23T20:25:40.279Z,2.85
2018-04-23T20:28:07.703Z,1.98
2018-04-23T20:30:35.949Z,2.50
2018-04-23T20:33:03.381Z,2.05
2018-04-23T20:35:30.839Z,2.15
2018-04-23T20:37:58.294Z,3.08
2018-04-23T20:40:25.813Z,1.80
2018-04-23T20:42:53.289Z,2.05
2018-04-23T20:45:20.760Z,2.12
2018-04-23T20:47:48.177Z,1.75
2018-04-23T20:50:15.635Z,1.40
2018-04-23T20:52:43.097Z,1.60
2018-04-23T20:55:10.510Z,1.95
2018-04-23T20:57:37.984Z,1.95
2018-04-23T21:00:05.443Z,3.22
2018-04-23T21:02:32.879Z,1.95
2018-04-23T21:05:00.357Z,2.42
2018-04-23T21:07:27.803Z,3.15
2018-04-23T21:09:55.233Z,2.92
2018-04-23T21:12:22.661Z,2.30
2018-04-23T21:14:50.111Z,2.08
2018-04-23T21:17:17.548Z,3.50
2018-04-23T21:19:45.012Z,2.03
2018-04-23T21:22:12.553Z,1.45
2018-04-23T21:24:39.989Z,2.70
2018-04-23T21:27:07.550Z,1.73
2018-04-23T21:29:35.020Z,1.85
2018-04-23T21:32:02.441Z,1.87
2018-04-23T21:34:29.897Z,1.87
2018-04-23T21:36:57.332Z,1.90
2018-04-23T21:39:24.921Z,2.40
2018-04-23T21:41:52.380Z,2.25
2018-04-23T21:44:19.845Z,2.78
2018-04-23T21:46:47.284Z,3.35
2018-04-23T21:49:14.700Z,3.28
2018-04-23T21:51:42.157Z,2.05
2018-04-23T21:54:09.646Z,1.52
2018-04-23T21:56:37.104Z,1.80
2018-04-23T21:59:04.525Z,2.03
2018-04-23T22:01:31.996Z,1.80
2018-04-23T22:03:59.427Z,1.62
2018-04-23T22:06:26.811Z,2.97
2018-04-23T22:08:54.312Z,2.30
2018-04-23T22:11:21.956Z,3.15
2018-04-23T22:13:49.396Z,1.85
2018-04-23T22:16:16.863Z,2.42
2018-04-23T22:18:44.251Z,3.55
2018-04-23T22:21:11.713Z,1.98
2018-04-23T22:23:39.217Z,3.20
2018-04-23T22:26:06.643Z,2.70
2018-04-23T22:28:34.089Z,2.20
2018-04-23T22:31:01.568Z,1.85
2018-04-23T22:33:29.025Z,2.15
2018-04-23T22:35:56.435Z,2.22
2018-04-23T22:38:23.869Z,2.90
2018-04-23T22:40:51.266Z,1.83
2018-04-23T22:43:18.758Z,3.55
2018-04-23T22:45:46.246Z,1.87
2018-04-23T22:48:13.728Z,2.58
2018-04-23T22:50:41.195Z,3.05
2018-04-23T22:53:08.619Z,3.22
2018-04-23T22:55:36.094Z,4.03
2018-04-23T22:58:03.515Z,2.55
2018-04-23T23:00:30.926Z,4.00
2018-04-23T23:02:58.326Z,2.08
2018-04-23T23:05:25.796Z,2.53
2018-04-23T23:07:53.278Z,2.00
2018-04-23T23:10:20.710Z,3.58
2018-04-23T23:12:48.100Z,2.35
2018-04-23T23:15:15.535Z,2.10
2018-04-23T23:17:42.972Z,1.65
2018-04-23T23:20:10.399Z,5.05
2018-04-23T23:22:38.033Z,2.95
2018-04-23T23:25:05.464Z,3.05
2018-04-23T23:27:32.991Z,2.85
2018-04-23T23:30:00.309Z,2.62
2018-04-23T23:32:27.743Z,2.25
2018-04-23T23:34:55.310Z,2.50
2018-04-23T23:37:22.715Z,5.50
2018-04-23T23:39:50.163Z,2.85
2018-04-23T23:42:17.607Z,3.00
2018-04-23T23:44:44.993Z,2.55
2018-04-23T23:47:12.455Z,2.83
2018-04-23T23:49:39.851Z,2.90
2018-04-23T23:52:07.313Z,3.08
2018-04-23T23:54:34.885Z,3.10
2018-04-23T23:57:02.321Z,2.35
2018-04-23T23:59:29.728Z,2.22
